Wellford, SC (29385)

10:23 AM EDT on August 24, 2016 (GMT -0400)
Northview Acres | | Change Station

Elev 938 ft 34.96 °N, 82.13 °W | Updated 3 minutes ago

Light Rain
Light Rain Mist
71.8 °F
Feels Like 70 °F
N
0.0
Wind Variable Wind from North
Gusts 2.0 mph

Today
High -- | Low -- °F
--% Chance of Precip.
Yesterday
High -- | Low -- °F
Precip. -- in
Pressure 30.29 in
Visibility 5.0 miles
Clouds Mostly Cloudy 2500 ft
Overcast 6000 ft
Heat Index 70 °F
Dew Point 67 °F
Humidity 86%
Rainfall 0.00 in
Snow Depth Not available.
6:55 AM 8:04 PM
Waning Gibbous, 56% visible
METAR KGSP 241353Z 33003KT 5SM -RA BR BKN025 OVC060 22/20 A3032 RMK AO2 RAB34 SLP255 P0000 T02170200
Pressure 30.29 in
Visibility 5.0 miles
Clouds Mostly Cloudy 2500 ft
Overcast 6000 ft
Heat Index 70 °F
Dew Point 67 °F
Humidity 86%
Rainfall 0.00 in
Snow Depth Not available.
6:55 AM 8:04 PM
Waning Gibbous, 56% visible
METAR KGSP 241353Z 33003KT 5SM -RA BR BKN025 OVC060 22/20 A3032 RMK AO2 RAB34 SLP255 P0000 T02170200

10-Day Weather Forecast

Almanac

Astronomy

Aug. 24, 2016 Rise Set
Actual Time
Civil Twilight
Nautical Twilight
Astronomical Twilight
Moon
Length of Visible Light
Length of Day
Tomorrow will be .
, % of the Moon is Illuminated

Today's Extremes

State Highs State Lows

Community

WunderPhotos

Upload Photos

1,934,606 photos uploaded!

WunderBlog® & News

Nearby

Air Quality

  Air Quality AQ Index Pollutant
Not available.

Snow Depth

Station Depth Elevation

Earthquake Activity

City Distance Mag. Time & Date
Minimum magnitude displayed is 2.5.

Coastal Water Temperatures

Place Temperature

Stations

Nearby Weather Stations

Station Location Temp. Windchill Dew Point Humidity Wind Precip. Elev Updated Type
                   

Watches & Warnings

There are currently no watches in effect.